Time;durP1;ratioP1;P1;durP2;ratioP2;P2;SDS_P1;SDS_P2;PMS_P1;PMS_P2;Temp;Humidity;BMP_temperature;BMP_pressure;BME280_temperature;BME280_humidity;BME280_pressure;Samples;Min_cycle;Max_cycle;Signal;HPM_P1;HPM_P2
2021/01/27 00:01:14;;;;;;;;;;;;;;;2.73;65.56;100234.75;3103798;28;19926;-80
2021/01/27 00:02:46;;;;;;;;;;;;;;;2.77;65.69;100238.88;3109152;28;19926;-79
2021/01/27 00:04:17;;;;;;;;;;;;;;;2.77;65.63;100234.47;3103571;28;19925;-77
2021/01/27 00:05:49;;;;;;;;;;;;;;;2.77;65.18;100236.25;3109084;28;20019;-78
2021/01/27 00:07:20;;;;;;;;;;;;;;;2.77;65.11;100234.47;3105959;28;19926;-78
2021/01/27 00:08:51;;;;;;;;;;;;;;;2.74;65.23;100229.38;3108666;28;19952;-78
2021/01/27 00:10:22;;;;;;;;;;;;;;;2.72;65.53;100233.03;3105282;28;19925;-79
2021/01/27 00:11:54;;;;;;;;;;;;;;;2.70;64.71;100227.00;3108610;28;19943;-79
2021/01/27 00:13:30;;;;;;;;;;;;;;;2.70;64.40;100238.38;3100052;28;19934;-79
2021/01/27 00:15:01;;;;;;;;;;;;;;;2.64;64.85;100228.19;3102740;28;19933;-78
2021/01/27 00:16:32;;;;;;;;;;;;;;;2.74;64.64;100225.88;3097842;28;19926;-79
2021/01/27 00:18:05;;;;;;;;;;;;;;;2.74;64.12;100215.31;3101112;28;19953;-79
2021/01/27 00:19:36;;;;;;;;;;;;;;;2.76;64.52;100202.84;3109555;28;19980;-79
2021/01/27 00:21:07;;;;;;;;;;;;;;;2.77;64.38;100208.06;3100626;28;20282;-79
2021/01/27 00:22:38;;;;;;;;;;;;;;;2.76;64.17;100205.50;3109676;28;19933;-79
2021/01/27 00:24:09;;;;;;;;;;;;;;;2.74;63.91;100204.75;3104877;28;19934;-79
2021/01/27 00:25:41;;;;;;;;;;;;;;;2.73;64.04;100203.91;3101750;28;19926;-79
2021/01/27 00:27:12;;;;;;;;;;;;;;;2.75;63.85;100203.78;3104328;28;19925;-79
2021/01/27 00:28:44;;;;;;;;;;;;;;;2.68;63.73;100197.19;3106782;28;19952;-79
2021/01/27 00:30:15;;;;;;;;;;;;;;;2.74;64.09;100194.19;3102343;28;19995;-79
2021/01/27 00:31:46;;;;;;;;;;;;;;;2.72;63.94;100190.78;3109204;28;19964;-79
2021/01/27 00:33:18;;;;;;;;;;;;;;;2.77;63.89;100191.34;3104260;28;19933;-79
2021/01/27 00:34:49;;;;;;;;;;;;;;;2.77;63.69;100192.22;3101915;28;19929;-79
2021/01/27 00:36:20;;;;;;;;;;;;;;;2.73;63.66;100189.84;3107704;28;19929;-79
2021/01/27 00:37:50;;;;;;;;;;;;;;;2.75;63.65;100187.94;3106752;28;19933;-79
2021/01/27 00:39:21;;;;;;;;;;;;;;;2.74;63.59;100188.91;3101777;28;19933;-80
2021/01/27 00:40:53;;;;;;;;;;;;;;;2.74;63.53;100181.00;3106735;28;19933;-80
2021/01/27 00:42:24;;;;;;;;;;;;;;;2.73;63.69;100171.38;3102721;28;19929;-79
2021/01/27 00:43:55;;;;;;;;;;;;;;;2.65;63.72;100177.09;3109874;28;19983;-79
2021/01/27 00:45:26;;;;;;;;;;;;;;;2.68;63.92;100174.28;3103910;28;19968;-79
2021/01/27 00:46:57;;;;;;;;;;;;;;;2.68;63.76;100168.16;3105269;28;19933;-79
2021/01/27 00:48:29;;;;;;;;;;;;;;;2.65;63.94;100170.03;3106066;28;20019;-79
2021/01/27 00:50:01;;;;;;;;;;;;;;;2.64;63.75;100167.47;3106057;28;19969;-80
2021/01/27 00:51:32;;;;;;;;;;;;;;;2.69;63.76;100161.94;3103685;28;19941;-79
2021/01/27 00:53:03;;;;;;;;;;;;;;;2.64;63.80;100160.44;3108385;28;20403;-79
2021/01/27 00:54:33;;;;;;;;;;;;;;;2.66;63.82;100162.97;3103639;28;19925;-79
2021/01/27 00:56:05;;;;;;;;;;;;;;;2.61;64.09;100157.97;3112956;28;19926;-79
2021/01/27 00:57:35;;;;;;;;;;;;;;;2.68;63.99;100157.59;3110238;28;19925;-79
2021/01/27 00:59:06;;;;;;;;;;;;;;;2.71;63.65;100170.63;3114064;28;19929;-80
2021/01/27 01:00:39;;;;;;;;;;;;;;;2.68;63.92;100165.50;3114409;28;19929;-79
2021/01/27 01:02:10;;;;;;;;;;;;;;;2.63;64.13;100166.66;3109306;28;19929;-79
2021/01/27 01:03:42;;;;;;;;;;;;;;;2.64;64.14;100164.84;3105642;28;19925;-80
2021/01/27 01:05:15;;;;;;;;;;;;;;;2.59;63.91;100165.13;3111048;28;19926;-79
2021/01/27 01:06:46;;;;;;;;;;;;;;;2.63;63.84;100163.13;3104220;28;20392;-79
2021/01/27 01:08:17;;;;;;;;;;;;;;;2.62;63.81;100158.78;3106980;28;19932;-79
2021/01/27 01:09:48;;;;;;;;;;;;;;;2.63;63.62;100156.09;3104281;28;19933;-80
2021/01/27 01:11:19;;;;;;;;;;;;;;;2.65;63.75;100161.25;3108809;28;20499;-79
2021/01/27 01:12:50;;;;;;;;;;;;;;;2.56;64.32;100159.16;3104400;28;19929;-79
2021/01/27 01:14:21;;;;;;;;;;;;;;;2.54;64.43;100158.41;3105312;28;20657;-79
2021/01/27 01:15:52;;;;;;;;;;;;;;;2.46;64.44;100164.13;3109559;28;19913;-78
2021/01/27 01:17:23;;;;;;;;;;;;;;;2.45;64.72;100154.53;3125026;28;19914;-78
2021/01/27 01:18:55;;;;;;;;;;;;;;;2.40;64.79;100151.31;3114931;28;19933;-78
2021/01/27 01:20:26;;;;;;;;;;;;;;;2.36;65.05;100155.06;3120395;28;19933;-79
2021/01/27 01:21:57;;;;;;;;;;;;;;;2.35;65.36;100146.28;3122163;28;19913;-77
2021/01/27 01:23:28;;;;;;;;;;;;;;;2.31;65.52;100136.88;3120343;28;19926;-78
2021/01/27 01:25:00;;;;;;;;;;;;;;;2.37;65.29;100148.81;3120575;28;19948;-78
2021/01/27 01:26:31;;;;;;;;;;;;;;;2.38;65.57;100142.63;3127368;28;19936;-79
2021/01/27 01:28:03;;;;;;;;;;;;;;;2.34;65.55;100145.47;3117824;28;19933;-79
2021/01/27 01:29:34;;;;;;;;;;;;;;;2.26;65.38;100149.47;3119536;28;19933;-78
2021/01/27 01:31:05;;;;;;;;;;;;;;;2.32;65.56;100155.25;3120397;28;19933;-78
2021/01/27 01:32:35;;;;;;;;;;;;;;;2.33;65.37;100149.03;3118701;28;19929;-78
2021/01/27 01:34:07;;;;;;;;;;;;;;;2.30;65.11;100156.28;3120541;28;19947;-79
2021/01/27 01:35:38;;;;;;;;;;;;;;;2.23;65.21;100145.22;3121948;28;19913;-80
2021/01/27 01:37:10;;;;;;;;;;;;;;;2.28;65.22;100153.72;3121888;28;20013;-80
2021/01/27 01:38:41;;;;;;;;;;;;;;;2.30;65.16;100148.38;3122012;28;19917;-80
2021/01/27 01:40:13;;;;;;;;;;;;;;;2.35;65.02;100154.22;3117772;28;19926;-78
2021/01/27 01:41:44;;;;;;;;;;;;;;;2.33;65.03;100154.31;3115418;28;19936;-79
2021/01/27 01:43:16;;;;;;;;;;;;;;;2.34;64.98;100148.09;3111251;28;20262;-78
2021/01/27 01:44:48;;;;;;;;;;;;;;;2.37;64.85;100138.28;3106668;28;19933;-80
2021/01/27 01:46:20;;;;;;;;;;;;;;;2.33;64.80;100127.91;3109685;28;19980;-80
2021/01/27 01:47:52;;;;;;;;;;;;;;;2.30;64.86;100135.16;3107300;28;19957;-80
2021/01/27 01:49:24;;;;;;;;;;;;;;;2.31;65.05;100131.59;3107605;28;19925;-80
2021/01/27 01:50:58;;;;;;;;;;;;;;;2.29;65.09;100133.47;3110214;28;19969;-78
2021/01/27 01:52:29;;;;;;;;;;;;;;;2.27;64.81;100132.69;3106939;28;19961;-79
2021/01/27 01:54:01;;;;;;;;;;;;;;;2.23;65.06;100124.13;3107194;28;19952;-79
2021/01/27 01:55:33;;;;;;;;;;;;;;;2.23;65.08;100126.75;3115980;28;19932;-79
2021/01/27 01:57:08;;;;;;;;;;;;;;;2.24;64.67;100122.31;3118669;28;20444;-79
2021/01/27 01:58:40;;;;;;;;;;;;;;;2.19;64.69;100122.59;3122681;28;19929;-80
2021/01/27 02:00:11;;;;;;;;;;;;;;;2.16;64.74;100118.34;3109387;28;20281;-79
2021/01/27 02:01:44;;;;;;;;;;;;;;;2.20;64.62;100116.38;3108417;28;19925;-79
2021/01/27 02:03:15;;;;;;;;;;;;;;;2.21;64.47;100123.34;3107762;28;19964;-79
2021/01/27 02:04:50;;;;;;;;;;;;;;;2.15;64.44;100116.63;3107333;28;19972;-80
2021/01/27 02:06:21;;;;;;;;;;;;;;;2.18;64.35;100111.19;3105661;28;21442;-78
2021/01/27 02:07:53;;;;;;;;;;;;;;;2.16;64.50;100112.22;3111042;28;19926;-79
2021/01/27 02:09:24;;;;;;;;;;;;;;;2.18;64.68;100110.34;3103594;28;19961;-79
2021/01/27 02:10:55;;;;;;;;;;;;;;;2.17;64.42;100108.66;3111040;28;19930;-79
2021/01/27 02:12:32;;;;;;;;;;;;;;;2.17;64.34;100109.50;3103953;28;19964;-79
2021/01/27 02:14:19;;;;;;;;;;;;;;;2.10;64.38;100112.56;3104489;28;19929;-79
2021/01/27 02:16:06;;;;;;;;;;;;;;;2.12;64.43;100115.97;3100673;28;19925;-79
2021/01/27 02:17:42;;;;;;;;;;;;;;;2.12;64.63;100108.06;3106269;28;19988;-79
2021/01/27 02:19:33;;;;;;;;;;;;;;;2.03;64.26;100117.38;3105478;28;20044;-79
2021/01/27 02:21:23;;;;;;;;;;;;;;;2.05;64.78;100109.38;3082685;28;20386;-79
2021/01/27 02:23:15;;;;;;;;;;;;;;;2.05;64.84;100109.38;3107451;28;20254;-80
2021/01/27 02:25:11;;;;;;;;;;;;;;;2.11;64.42;100106.34;3110741;28;20539;-79
2021/01/27 02:26:54;;;;;;;;;;;;;;;2.06;64.49;100109.25;3104497;28;19972;-79
2021/01/27 02:28:44;;;;;;;;;;;;;;;2.11;64.43;100106.34;3100514;28;19961;-78
2021/01/27 02:30:21;;;;;;;;;;;;;;;2.11;64.39;100098.44;3105037;28;19963;-79
2021/01/27 02:31:59;;;;;;;;;;;;;;;2.08;64.42;100096.84;3110558;28;19988;-79
2021/01/27 02:33:45;;;;;;;;;;;;;;;2.13;64.26;100099.22;3105393;28;20017;-79
2021/01/27 02:35:20;;;;;;;;;;;;;;;2.02;64.33;100090.13;3110171;28;20031;-79
2021/01/27 02:36:53;;;;;;;;;;;;;;;2.01;64.58;100088.44;3103358;28;19947;-79
2021/01/27 02:38:26;;;;;;;;;;;;;;;2.02;64.58;100095.41;3110224;28;20000;-79
2021/01/27 02:39:59;;;;;;;;;;;;;;;2.01;64.57;100095.50;3107375;28;19972;-78
2021/01/27 02:41:32;;;;;;;;;;;;;;;2.08;64.57;100085.47;3108136;28;20483;-79
2021/01/27 02:43:07;;;;;;;;;;;;;;;2.03;64.78;100083.09;3106128;28;19925;-79
2021/01/27 02:44:41;;;;;;;;;;;;;;;1.97;64.78;100088.69;3108001;28;19925;-79
2021/01/27 02:46:14;;;;;;;;;;;;;;;1.92;65.01;100088.13;3102243;28;20404;-79
2021/01/27 02:47:59;;;;;;;;;;;;;;;1.95;65.19;100085.28;3111576;28;19935;-79
2021/01/27 02:49:35;;;;;;;;;;;;;;;1.93;65.09;100095.09;3105609;28;20318;-79
2021/01/27 02:51:09;;;;;;;;;;;;;;;1.96;65.33;100089.63;3105023;28;19964;-79
2021/01/27 02:52:46;;;;;;;;;;;;;;;1.95;65.23;100091.44;3108539;28;19929;-79
2021/01/27 02:54:19;;;;;;;;;;;;;;;1.94;65.17;100089.72;3106769;28;19964;-79
2021/01/27 02:55:54;;;;;;;;;;;;;;;1.98;65.10;100086.00;3107578;28;19961;-79
2021/01/27 02:57:28;;;;;;;;;;;;;;;1.94;65.06;100092.38;3104636;28;19930;-79
2021/01/27 02:59:02;;;;;;;;;;;;;;;1.90;65.28;100098.75;3108676;28;20008;-79
2021/01/27 03:00:35;;;;;;;;;;;;;;;1.87;65.34;100101.56;3103915;28;19925;-79
2021/01/27 03:02:08;;;;;;;;;;;;;;;1.87;65.53;100101.56;3108569;28;19969;-79
2021/01/27 03:03:41;;;;;;;;;;;;;;;1.94;65.34;100102.03;3106574;28;20019;-79
2021/01/27 03:05:15;;;;;;;;;;;;;;;1.91;65.45;100094.34;3111124;28;19925;-79
2021/01/27 03:06:47;;;;;;;;;;;;;;;1.91;65.56;100089.06;3109907;28;19933;-79
2021/01/27 03:08:20;;;;;;;;;;;;;;;1.91;65.53;100094.34;3110875;28;20082;-79
2021/01/27 03:09:56;;;;;;;;;;;;;;;1.96;65.64;100092.28;3107978;28;19926;-80
2021/01/27 03:11:29;;;;;;;;;;;;;;;1.97;65.50;100097.47;3106802;28;19925;-79
2021/01/27 03:13:01;;;;;;;;;;;;;;;1.98;65.38;100091.25;3104589;28;19983;-79
2021/01/27 03:14:32;;;;;;;;;;;;;;;1.96;65.24;100085.22;3108057;28;19965;-79
2021/01/27 03:16:07;;;;;;;;;;;;;;;1.99;65.30;100092.94;3095708;28;19929;-78
2021/01/27 03:17:39;;;;;;;;;;;;;;;1.97;65.61;100094.84;3111153;28;19925;-78
2021/01/27 03:19:13;;;;;;;;;;;;;;;1.90;65.97;100095.28;3105919;28;19979;-77
2021/01/27 03:20:46;;;;;;;;;;;;;;;1.94;65.91;100086.22;3104228;28;19926;-78
2021/01/27 03:22:20;;;;;;;;;;;;;;;1.99;65.59;100092.09;3103227;28;19926;-77
2021/01/27 03:23:53;;;;;;;;;;;;;;;1.91;65.43;100089.91;3108661;28;20008;-79
2021/01/27 03:25:25;;;;;;;;;;;;;;;1.96;65.83;100079.94;3107672;28;19968;-78
2021/01/27 03:26:58;;;;;;;;;;;;;;;2.03;65.62;100075.19;3105118;28;19960;-78
2021/01/27 03:28:31;;;;;;;;;;;;;;;2.07;65.54;100076.69;3104880;28;19935;-78
2021/01/27 03:30:06;;;;;;;;;;;;;;;2.10;65.38;100081.78;3107829;28;20284;-78
2021/01/27 03:31:37;;;;;;;;;;;;;;;2.12;65.39;100079.91;3110184;28;19961;-78
2021/01/27 03:33:11;;;;;;;;;;;;;;;2.17;65.30;100072.56;3105510;28;19964;-78
2021/01/27 03:35:05;;;;;;;;;;;;;;;2.20;65.13;100071.53;3108275;28;19930;-78
2021/01/27 03:36:48;;;;;;;;;;;;;;;2.14;65.92;100072.75;3106591;28;19999;-78
2021/01/27 03:38:25;;;;;;;;;;;;;;;2.13;65.78;100070.19;3109777;28;19932;-78
2021/01/27 03:40:01;;;;;;;;;;;;;;;2.11;65.64;100072.94;3109142;28;20435;-78
2021/01/27 03:41:35;;;;;;;;;;;;;;;2.14;65.89;100056.91;3120173;28;19979;-78
2021/01/27 03:43:09;;;;;;;;;;;;;;;2.18;65.59;100054.94;3109392;28;19930;-78
2021/01/27 03:44:44;;;;;;;;;;;;;;;2.21;65.47;100051.28;3103564;28;20016;-78
2021/01/27 03:46:19;;;;;;;;;;;;;;;2.21;65.03;100054.75;3109432;28;19932;-78
2021/01/27 03:47:52;;;;;;;;;;;;;;;2.23;64.87;100052.91;3108299;28;19968;-78
2021/01/27 03:49:52;;;;;;;;;;;;;;;2.25;64.75;100058.94;3108291;28;19925;-78
2021/01/27 03:51:42;;;;;;;;;;;;;;;2.22;64.83;100064.38;3114518;28;19933;-80
2021/01/27 03:53:18;;;;;;;;;;;;;;;2.21;65.20;100062.69;3110589;28;19980;-79
2021/01/27 03:54:55;;;;;;;;;;;;;;;2.20;64.71;100049.59;3102464;28;20049;-79
2021/01/27 03:56:30;;;;;;;;;;;;;;;2.21;64.38;100052.13;3110812;28;19925;-79
2021/01/27 03:58:03;;;;;;;;;;;;;;;2.25;64.65;100053.66;3106035;28;19925;-79
2021/01/27 03:59:35;;;;;;;;;;;;;;;2.25;64.57;100048.38;3110820;28;19975;-79
2021/01/27 04:01:08;;;;;;;;;;;;;;;2.27;64.71;100053.56;3109480;28;19956;-79
2021/01/27 04:02:39;;;;;;;;;;;;;;;2.15;64.92;100048.06;3111633;28;20007;-78
2021/01/27 04:04:25;;;;;;;;;;;;;;;2.20;65.11;100039.88;3106966;28;19937;-79
2021/01/27 04:06:07;;;;;;;;;;;;;;;2.23;65.21;100033.56;3110695;28;19932;-79
2021/01/27 04:07:50;;;;;;;;;;;;;;;2.22;64.94;100032.72;3053345;28;19937;-79
2021/01/27 04:09:32;;;;;;;;;;;;;;;2.21;65.20;100030.19;3077019;28;19943;-79
2021/01/27 04:11:08;;;;;;;;;;;;;;;2.20;65.42;100031.13;3105660;28;19926;-79
2021/01/27 04:12:45;;;;;;;;;;;;;;;2.21;65.25;100041.56;3280165;22;19929;-79
2021/01/27 04:14:34;;;;;;;;;;;;;;;2.15;65.34;100034.88;3086291;28;19926;-79
2021/01/27 04:16:12;;;;;;;;;;;;;;;2.21;65.07;100017.00;3057876;28;19941;-78
2021/01/27 04:17:46;;;;;;;;;;;;;;;2.26;64.90;100015.78;3091546;28;19932;-79
2021/01/27 04:19:21;;;;;;;;;;;;;;;2.30;64.82;100003.25;3074996;28;20328;-79
2021/01/27 04:21:04;;;;;;;;;;;;;;;2.33;64.65;100006.56;3093617;28;19933;-79
2021/01/27 04:22:39;;;;;;;;;;;;;;;2.34;64.49;99999.47;3028187;29;19927;-79
2021/01/27 04:24:16;;;;;;;;;;;;;;;2.36;64.46;99992.31;3067476;28;20009;-79
2021/01/27 04:26:00;;;;;;;;;;;;;;;2.37;64.24;99993.16;3088209;28;19933;-79
2021/01/27 04:27:44;;;;;;;;;;;;;;;2.31;64.48;99992.59;3070793;28;20253;-79
2021/01/27 04:29:21;;;;;;;;;;;;;;;2.24;64.40;99987.78;3070849;28;20426;-78
2021/01/27 04:30:57;;;;;;;;;;;;;;;2.27;64.39;99984.97;3065665;28;19969;-78
2021/01/27 04:32:37;;;;;;;;;;;;;;;2.28;64.40;99978.75;3085118;28;20004;-79
2021/01/27 04:34:12;;;;;;;;;;;;;;;2.31;64.44;99973.28;3058018;28;19985;-79
2021/01/27 04:35:57;;;;;;;;;;;;;;;2.32;64.13;99965.28;3086790;28;19993;-78
2021/01/27 04:37:39;;;;;;;;;;;;;;;2.31;64.07;99968.84;3060357;28;19926;-79
2021/01/27 04:39:22;;;;;;;;;;;;;;;2.36;64.17;99978.28;3069337;28;19926;-79
2021/01/27 04:41:14;;;;;;;;;;;;;;;2.32;64.20;99967.91;3074655;29;19941;-79
2021/01/27 04:42:55;;;;;;;;;;;;;;;2.30;63.57;99969.78;3050458;28;19986;-80
2021/01/27 04:44:36;;;;;;;;;;;;;;;2.32;63.89;99967.91;3073484;29;19926;-79
2021/01/27 04:46:13;;;;;;;;;;;;;;;2.33;64.63;99961.69;3075504;28;19926;-78
2021/01/27 04:48:11;;;;;;;;;;;;;;;2.34;64.47;99958.13;3087462;28;20300;-78
2021/01/27 04:49:50;;;;;;;;;;;;;;;2.36;63.96;99946.63;3066009;28;19926;-79
2021/01/27 04:51:40;;;;;;;;;;;;;;;2.36;63.81;99947.47;3058432;28;21270;-78
2021/01/27 04:53:43;;;;;;;;;;;;;;;2.36;64.07;99946.63;3065587;28;19964;-78
2021/01/27 04:55:35;;;;;;;;;;;;;;;2.34;65.04;99939.66;3020602;29;20034;-78
2021/01/27 04:57:23;;;;;;;;;;;;;;;2.37;64.47;99928.06;3042514;28;20482;-78
2021/01/27 04:59:10;;;;;;;;;;;;;;;2.33;64.26;99935.31;3074290;29;20371;-78
2021/01/27 05:00:53;;;;;;;;;;;;;;;2.34;63.99;99928.25;3052166;28;19934;-78
2021/01/27 05:02:52;;;;;;;;;;;;;;;2.38;64.25;99934.16;3079784;28;19930;-79
2021/01/27 05:04:53;;;;;;;;;;;;;;;2.39;64.09;99933.22;3053519;28;20329;-78
2021/01/27 05:06:26;;;;;;;;;;;;;;;2.43;64.03;99924.19;3061882;28;19944;-78
2021/01/27 05:08:05;;;;;;;;;;;;;;;2.48;64.09;99932.66;3077810;29;20036;-78
2021/01/27 05:09:59;;;;;;;;;;;;;;;2.45;64.01;99932.88;3069297;28;19926;-78
2021/01/27 05:11:43;;;;;;;;;;;;;;;2.39;64.45;99931.44;3084094;28;19949;-78
2021/01/27 05:13:32;;;;;;;;;;;;;;;2.43;64.58;99935.59;3066047;28;20009;-78
2021/01/27 05:15:12;;;;;;;;;;;;;;;2.27;64.41;99922.47;3075526;28;19980;-78
2021/01/27 05:16:54;;;;;;;;;;;;;;;2.39;64.58;99938.50;3075015;29;19926;-78
2021/01/27 05:18:50;;;;;;;;;;;;;;;2.31;64.88;99931.91;3043468;28;19966;-78
2021/01/27 05:20:24;;;;;;;;;;;;;;;2.32;64.82;99927.47;3055653;28;19931;-77
2021/01/27 05:22:08;;;;;;;;;;;;;;;2.28;65.02;99928.63;3048789;28;19928;-79
2021/01/27 05:26:04;;;;;;;;;;;;;;;2.13;65.75;99919.84;3062958;29;19986;-78
2021/01/27 05:30:19;;;;;;;;;;;;;;;2.13;66.08;99923.34;3092741;28;19918;-77
2021/01/27 05:34:29;;;;;;;;;;;;;;;1.97;66.90;99907.63;3074360;28;19922;-77
2021/01/27 05:36:19;;;;;;;;;;;;;;;1.99;66.74;99911.00;3085378;28;19926;-78
2021/01/27 05:38:18;;;;;;;;;;;;;;;2.01;66.65;99901.19;3085588;28;19999;-78
2021/01/27 05:40:07;;;;;;;;;;;;;;;2.02;66.58;99899.44;3061724;28;19926;-77
2021/01/27 05:43:56;;;;;;;;;;;;;;;1.92;66.63;99891.22;3039739;29;19926;-78
2021/01/27 05:45:37;;;;;;;;;;;;;;;1.94;66.90;99883.19;3058284;28;19942;-78
2021/01/27 05:47:30;;;;;;;;;;;;;;;1.98;66.89;99893.50;3088574;28;19926;-78
2021/01/27 05:58:44;;;;;;;;;;;;;;;1.91;67.16;99897.44;3590887;22;19936;-77
2021/01/27 06:04:57;;;;;;;;;;;;;;;1.88;67.71;99892.34;3062761;28;19922;-78
2021/01/27 06:18:49;;;;;;;;;;;;;;;1.97;67.64;99875.97;3107435;28;20277;-78
2021/01/27 06:27:08;;;;;;;;;;;;;;;1.76;68.56;99878.09;3112895;28;19917;-78
2021/01/27 06:29:08;;;;;;;;;;;;;;;1.74;69.04;99887.06;3120493;28;20292;-78
2021/01/27 06:30:54;;;;;;;;;;;;;;;1.79;68.76;99896.38;3114317;28;19932;-78
2021/01/27 06:40:58;;;;;;;;;;;;;;;1.63;69.56;99895.63;3128864;28;19921;-78
2021/01/27 06:42:38;;;;;;;;;;;;;;;1.61;69.62;99890.41;3118744;28;20442;-78
2021/01/27 06:46:51;;;;;;;;;;;;;;;1.62;69.61;99891.28;3120540;28;20344;-78
2021/01/27 06:48:34;;;;;;;;;;;;;;;1.67;69.71;99884.78;3119038;28;19940;-78
2021/01/27 06:54:26;;;;;;;;;;;;;;;1.60;69.89;99872.06;3115476;28;19936;-79
2021/01/27 06:56:29;;;;;;;;;;;;;;;1.63;69.73;99880.63;3113533;28;20022;-78
2021/01/27 06:58:08;;;;;;;;;;;;;;;1.60;69.71;99878.19;3092920;28;19948;-79
2021/01/27 07:00:03;;;;;;;;;;;;;;;1.59;69.74;99880.91;3100715;28;20014;-78
2021/01/27 07:02:07;;;;;;;;;;;;;;;1.65;69.49;99876.13;3108993;28;19925;-78
2021/01/27 07:08:16;;;;;;;;;;;;;;;1.87;68.98;99890.66;3108282;28;19921;-78
2021/01/27 07:14:19;;;;;;;;;;;;;;;1.98;67.85;99888.22;3126119;28;19921;-79
2021/01/27 07:15:56;;;;;;;;;;;;;;;1.93;67.93;99895.56;3121644;28;19933;-78
2021/01/27 07:17:43;;;;;;;;;;;;;;;2.02;68.05;99889.72;3126339;28;19925;-78
2021/01/27 07:23:16;;;;;;;;;;;;;;;2.18;67.66;99894.03;3695187;22;19968;-78
2021/01/27 07:25:09;;;;;;;;;;;;;;;2.14;67.40;99900.47;3108260;28;19929;-78
2021/01/27 07:28:50;;;;;;;;;;;;;;;2.15;67.48;99878.41;3121187;28;19921;-78
2021/01/27 07:31:06;;;;;;;;;;;;;;;2.17;67.19;99876.53;3120168;28;20205;-78
2021/01/27 07:33:20;;;;;;;;;;;;;;;2.21;67.35;99898.31;3098776;28;19964;-78
2021/01/27 07:34:56;;;;;;;;;;;;;;;2.23;67.17;99901.66;3097305;28;19976;-78
2021/01/27 07:38:33;;;;;;;;;;;;;;;2.03;67.42;99904.59;3105413;28;19926;-79
2021/01/27 07:40:32;;;;;;;;;;;;;;;2.08;67.56;99898.22;3107850;28;19929;-79
2021/01/27 07:44:15;;;;;;;;;;;;;;;2.12;67.85;99904.97;3107622;28;19917;-78
2021/01/27 07:50:03;;;;;;;;;;;;;;;2.14;67.93;99895.19;3112038;28;19921;-79
2021/01/27 09:30:43;;;;;;;;;;;;;;;1.67;77.73;99892.69;3109232;28;19993;-78
2021/01/27 09:32:41;;;;;;;;;;;;;;;1.65;77.10;99889.31;3120226;28;19925;-78
2021/01/27 09:36:09;;;;;;;;;;;;;;;1.50;78.32;99883.16;3105782;28;19926;-78
2021/01/27 09:39:56;;;;;;;;;;;;;;;1.53;78.36;99874.22;3115205;28;20000;-79
2021/01/27 09:41:28;;;;;;;;;;;;;;;1.39;79.33;99875.91;3125507;28;19925;-78
2021/01/27 09:43:02;;;;;;;;;;;;;;;1.39;79.31;99865.34;3116657;28;19925;-78
2021/01/27 09:44:36;;;;;;;;;;;;;;;1.47;79.37;99878.06;3113592;28;20338;-77
2021/01/27 09:48:28;;;;;;;;;;;;;;;1.58;78.74;99884.47;3106143;28;19918;-78
2021/01/27 09:53:49;;;;;;;;;;;;;;;1.59;78.23;99887.03;3378301;22;20028;-77
2021/01/27 09:55:25;;;;;;;;;;;;;;;1.62;78.44;99880.75;3112712;28;19926;-77
2021/01/27 09:57:04;;;;;;;;;;;;;;;1.60;78.10;99878.19;3118698;28;19992;-77
2021/01/27 09:58:39;;;;;;;;;;;;;;;1.56;78.80;99876.69;3109707;28;19948;-77
2021/01/27 10:00:34;;;;;;;;;;;;;;;1.63;78.45;99875.38;3103991;28;20036;-77
2021/01/27 10:02:12;;;;;;;;;;;;;;;1.65;78.51;99876.13;3107950;28;19932;-77
2021/01/27 10:05:41;;;;;;;;;;;;;;;1.68;78.45;99869.81;3123373;28;19925;-77
2021/01/27 10:07:15;;;;;;;;;;;;;;;1.63;78.70;99867.47;3120665;28;19925;-77
2021/01/27 10:08:52;;;;;;;;;;;;;;;1.64;78.35;99863.06;3125912;28;19948;-77
2021/01/27 10:10:24;;;;;;;;;;;;;;;1.66;78.43;99862.00;3120993;28;19945;-77
2021/01/27 10:13:40;;;;;;;;;;;;;;;1.67;78.15;99858.44;3689875;23;19920;-78
2021/01/27 10:17:22;;;;;;;;;;;;;;;1.76;78.42;99850.91;3126135;28;20039;-77
2021/01/27 10:19:00;;;;;;;;;;;;;;;1.82;78.18;99840.84;3120980;28;19931;-78
2021/01/27 10:20:34;;;;;;;;;;;;;;;1.81;78.13;99847.06;3126212;28;19929;-78
2021/01/27 10:25:28;;;;;;;;;;;;;;;1.80;77.64;99832.19;3490812;22;20407;-77
2021/01/27 10:27:01;;;;;;;;;;;;;;;1.78;78.08;99833.22;3126308;28;19925;-78
2021/01/27 10:28:32;;;;;;;;;;;;;;;1.85;78.38;99829.25;3121179;28;20024;-78
2021/01/27 10:30:07;;;;;;;;;;;;;;;1.89;77.96;99819.38;3123232;28;19925;-78
2021/01/27 10:31:52;;;;;;;;;;;;;;;1.91;77.80;99813.06;3126311;28;19925;-78
2021/01/27 10:35:36;;;;;;;;;;;;;;;1.85;77.96;99822.19;3133367;28;19921;-78
2021/01/27 10:39:16;;;;;;;;;;;;;;;1.98;77.65;99832.00;3130420;28;19998;-78
2021/01/27 10:43:27;;;;;;;;;;;;;;;2.12;77.91;99821.44;3743524;22;19927;-79
2021/01/27 10:45:12;;;;;;;;;;;;;;;2.21;77.06;99824.44;3123514;28;19909;-78
2021/01/27 10:49:00;;;;;;;;;;;;;;;2.13;76.64;99827.56;3125611;28;19925;-78
2021/01/27 10:53:01;;;;;;;;;;;;;;;2.10;76.93;99827.72;3131186;28;19921;-78
2021/01/27 10:54:42;;;;;;;;;;;;;;;2.12;76.82;99820.56;3126549;28;20039;-78
2021/01/27 10:56:15;;;;;;;;;;;;;;;2.14;76.70;99821.34;3133104;28;19925;-78
2021/01/27 10:58:09;;;;;;;;;;;;;;;2.17;77.08;99818.50;3119572;28;19932;-78
2021/01/27 11:02:02;;;;;;;;;;;;;;;2.23;76.65;99810.22;3121372;28;19921;-77
2021/01/27 11:03:34;;;;;;;;;;;;;;;2.22;76.88;99819.06;3124334;28;19925;-77
2021/01/27 11:05:05;;;;;;;;;;;;;;;2.20;76.80;99818.31;3117196;28;20363;-78
2021/01/27 11:06:40;;;;;;;;;;;;;;;2.18;76.77;99810.50;3103804;28;19976;-78
2021/01/27 11:08:29;;;;;;;;;;;;;;;2.25;76.88;99799.53;3109284;28;19930;-78
2021/01/27 11:12:35;;;;;;;;;;;;;;;2.31;76.87;99802.66;3126932;28;19917;-77
2021/01/27 11:14:07;;;;;;;;;;;;;;;2.42;76.66;99806.38;3125117;28;19932;-77
2021/01/27 11:15:39;;;;;;;;;;;;;;;2.44;76.23;99818.53;3118254;28;19975;-77
2021/01/27 11:19:10;;;;;;;;;;;;;;;2.38;76.05;99805.75;3119782;28;19975;-77
2021/01/27 11:20:42;;;;;;;;;;;;;;;2.31;76.02;99791.25;3119324;28;19925;-78
2021/01/27 11:22:13;;;;;;;;;;;;;;;2.35;76.33;99800.66;3206504;22;19932;-78
2021/01/27 11:23:51;;;;;;;;;;;;;;;2.32;76.03;99793.78;3123694;28;19925;-77
2021/01/27 11:25:25;;;;;;;;;;;;;;;2.29;75.90;99799.25;3120885;28;19929;-78
2021/01/27 11:27:16;;;;;;;;;;;;;;;2.25;76.21;99794.28;3124422;28;19929;-78
2021/01/27 11:28:48;;;;;;;;;;;;;;;2.20;75.98;99786.66;3122353;28;19925;-77
2021/01/27 11:30:21;;;;;;;;;;;;;;;2.20;76.50;99784.00;3127922;28;20037;-78
2021/01/27 11:31:52;;;;;;;;;;;;;;;2.18;75.99;99783.25;3125525;28;19936;-78
2021/01/27 11:33:23;;;;;;;;;;;;;;;2.16;75.90;99779.91;3122787;28;20373;-78
2021/01/27 11:34:54;;;;;;;;;;;;;;;2.22;76.12;99762.84;3124620;28;19969;-78
2021/01/27 11:36:39;;;;;;;;;;;;;;;2.18;76.10;99772.69;3122892;28;19975;-79
2021/01/27 11:38:27;;;;;;;;;;;;;;;2.24;75.96;99782.88;3124516;28;19933;-78
2021/01/27 11:39:58;;;;;;;;;;;;;;;2.11;75.78;99774.91;3122480;28;19925;-78
2021/01/27 11:41:48;;;;;;;;;;;;;;;2.24;75.59;99767.06;3124321;28;20434;-79
2021/01/27 11:43:25;;;;;;;;;;;;;;;2.29;76.21;99774.69;3118438;28;19925;-79
2021/01/27 11:44:56;;;;;;;;;;;;;;;2.32;75.51;99769.19;3127021;28;20352;-79
2021/01/27 11:46:33;;;;;;;;;;;;;;;2.23;75.25;99773.28;3130913;28;19928;-79
2021/01/27 11:48:05;;;;;;;;;;;;;;;2.30;75.50;99769.28;3131201;28;19967;-79
2021/01/27 11:49:39;;;;;;;;;;;;;;;2.36;75.59;99775.97;3141289;28;19911;-79
2021/01/27 11:55:28;;;;;;;;;;;;;;;2.23;75.60;99781.19;3131908;28;19921;-78
2021/01/27 11:59:19;;;;;;;;;;;;;;;2.34;75.23;99770.81;3125533;28;20388;-78
2021/01/27 12:02:59;;;;;;;;;;;;;;;2.30;75.07;99761.38;3409860;22;19924;-79
2021/01/27 12:08:46;;;;;;;;;;;;;;;2.26;75.41;99754.63;3137406;28;20271;-79
2021/01/27 12:12:35;;;;;;;;;;;;;;;2.34;75.02;99768.16;3140281;28;19931;-79
2021/01/27 12:16:33;;;;;;;;;;;;;;;2.54;74.97;99752.84;3131794;28;20284;-78
2021/01/27 12:20:32;;;;;;;;;;;;;;;2.65;74.14;99737.09;3124595;28;19917;-79
2021/01/27 12:23:43;;;;;;;;;;;;;;;2.69;73.79;99707.88;3567471;22;20011;-78
2021/01/27 12:27:47;;;;;;;;;;;;;;;2.62;74.03;99684.53;3127426;28;21641;-78
2021/01/27 12:29:19;;;;;;;;;;;;;;;2.63;73.97;99667.75;3133023;28;19925;-78
2021/01/27 12:34:43;;;;;;;;;;;;;;;2.77;73.83;99642.22;3799231;22;19919;-79